Time;durP1;ratioP1;P1;durP2;ratioP2;P2;SDS_P1;SDS_P2;PMS_P1;PMS_P2;Temp;Humidity;BMP_temperature;BMP_pressure;BME280_temperature;BME280_humidity;BME280_pressure;Samples;Min_cycle;Max_cycle;Signal;HPM_P1;HPM_P2
2022/06/26 00:00:41;;;;;;;10.75;4.75;;;;;;;19.15;52.05;98624.54;1423350;82;81915;-70
2022/06/26 00:02:42;;;;;;;15.93;5.00;;;;;;;19.13;52.07;98630.49;1422501;82;21331;-68
2022/06/26 00:04:44;;;;;;;9.43;4.75;;;;;;;19.11;52.02;98627.63;1422798;81;21095;-69
2022/06/26 00:06:45;;;;;;;10.28;4.60;;;;;;;19.10;52.00;98626.77;1421546;82;81808;-69
2022/06/26 00:10:55;;;;;;;5.28;4.78;;;;;;;19.11;51.99;98640.48;1496411;77;22641;-70
2022/06/26 00:12:56;;;;;;;6.10;4.72;;;;;;;18.97;52.21;98644.86;1455486;77;81850;-70
2022/06/26 00:14:57;;;;;;;12.63;5.22;;;;;;;18.89;52.27;98645.55;1436389;81;21052;-69
2022/06/26 00:16:58;;;;;;;30.25;5.10;;;;;;;18.83;52.32;98647.38;1435618;81;21099;-68
2022/06/26 00:18:59;;;;;;;20.05;5.72;;;;;;;18.78;52.37;98656.30;1442075;79;80836;-69
2022/06/26 00:21:00;;;;;;;24.40;4.92;;;;;;;18.71;52.50;98652.81;1451792;81;21016;-69
2022/06/26 00:23:02;;;;;;;5.40;4.50;;;;;;;18.68;52.59;98652.27;1450354;80;20994;-69
2022/06/26 00:25:04;;;;;;;7.17;4.55;;;;;;;18.61;52.73;98655.95;1443156;81;81838;-70
2022/06/26 00:27:06;;;;;;;6.15;4.33;;;;;;;18.55;52.75;98655.12;1439932;82;21002;-69
2022/06/26 00:29:07;;;;;;;9.28;4.83;;;;;;;18.51;52.81;98653.23;1437852;81;21046;-70
2022/06/26 00:33:14;;;;;;;10.28;5.03;;;;;;;18.52;53.04;98656.73;1544297;74;22294;-68
2022/06/26 00:35:16;;;;;;;8.13;4.62;;;;;;;18.41;53.08;98660.32;1536775;75;21074;-69
2022/06/26 00:37:17;;;;;;;14.53;4.72;;;;;;;18.36;53.14;98659.89;1496066;77;81347;-68
2022/06/26 00:39:18;;;;;;;9.03;4.50;;;;;;;18.31;53.15;98659.44;1470252;79;20980;-69
2022/06/26 00:41:19;;;;;;;8.73;4.08;;;;;;;18.26;53.27;98662.47;1471924;78;21083;-69
2022/06/26 00:43:20;;;;;;;4.80;4.33;;;;;;;18.23;53.45;98665.91;1468256;79;81789;-69
2022/06/26 00:45:21;;;;;;;11.08;4.55;;;;;;;18.18;53.69;98656.97;1466860;79;21148;-68
2022/06/26 00:47:24;;;;;;;16.20;4.35;;;;;;;18.13;53.63;98665.34;1481822;78;21125;-70
2022/06/26 00:49:25;;;;;;;9.45;4.72;;;;;;;18.07;53.83;98663.67;1483753;78;80579;-68
2022/06/26 00:51:26;;;;;;;5.87;4.67;;;;;;;17.99;53.89;98659.01;1487122;78;21262;-68
2022/06/26 00:53:27;;;;;;;5.37;4.45;;;;;;;17.94;54.08;98666.04;1485823;78;21043;-68
2022/06/26 00:55:28;;;;;;;5.95;4.50;;;;;;;17.90;54.07;98667.73;1486637;78;80720;-69
2022/06/26 00:57:30;;;;;;;7.62;4.67;;;;;;;17.84;54.23;98671.27;1486178;78;21022;-69
2022/06/26 00:59:31;;;;;;;9.40;4.40;;;;;;;17.80;54.30;98673.83;1486415;78;21742;-69
2022/06/26 01:01:34;;;;;;;4.30;3.90;;;;;;;17.74;54.51;98670.36;1485885;78;80916;-69
2022/06/26 01:03:35;;;;;;;7.35;4.60;;;;;;;17.71;54.49;98665.28;1486177;78;21003;-68
2022/06/26 01:05:36;;;;;;;5.10;4.50;;;;;;;17.63;54.65;98664.58;1486891;78;21043;-69
2022/06/26 01:07:37;;;;;;;8.95;4.30;;;;;;;17.60;54.64;98670.62;1484685;78;81337;-68
2022/06/26 01:09:39;;;;;;;5.58;4.78;;;;;;;17.57;54.62;98673.09;1486439;79;20963;-69
2022/06/26 01:11:42;;;;;;;17.40;5.30;;;;;;;17.53;54.70;98670.31;1488771;78;21020;-69
2022/06/26 01:13:51;;;;;;;9.13;4.42;;;;;;;17.50;54.73;98674.07;1486056;78;80831;-69
2022/06/26 01:15:52;;;;;;;16.45;5.00;;;;;;;17.45;54.86;98679.42;1485241;78;21605;-69
2022/06/26 01:17:54;;;;;;;8.65;4.53;;;;;;;17.43;54.96;98680.02;1438894;81;21565;-69
2022/06/26 01:19:56;;;;;;;9.85;4.67;;;;;;;17.40;54.98;98673.11;1415685;82;80574;-69
2022/06/26 01:21:57;;;;;;;9.63;4.53;;;;;;;17.38;55.00;98673.73;1487527;78;20991;-69
2022/06/26 01:23:58;;;;;;;9.05;4.75;;;;;;;17.38;55.05;98674.20;1485732;78;20995;-69
2022/06/26 01:25:59;;;;;;;11.93;4.33;;;;;;;17.36;55.13;98674.33;1462834;79;81194;-69
2022/06/26 01:28:00;;;;;;;11.12;4.03;;;;;;;17.33;55.26;98671.92;1418093;82;21010;-69
2022/06/26 01:30:02;;;;;;;8.80;4.67;;;;;;;17.30;55.45;98677.51;1441887;80;21030;-69
2022/06/26 01:32:04;;;;;;;8.10;4.80;;;;;;;17.26;55.39;98676.06;1423492;81;81137;-69
2022/06/26 01:34:08;;;;;;;9.98;4.50;;;;;;;17.22;55.44;98669.29;1420856;82;21067;-70
2022/06/26 01:36:09;;;;;;;7.90;4.33;;;;;;;17.24;55.50;98668.66;1455906;79;80789;-69
2022/06/26 01:38:22;;;;;;;9.10;5.30;;;;;;;17.22;55.53;98666.63;1458210;80;20981;-69
2022/06/26 01:40:24;;;;;;;5.58;4.78;;;;;;;17.19;55.58;98669.05;1459086;80;20999;-69
2022/06/26 01:42:25;;;;;;;5.05;4.58;;;;;;;17.13;55.62;98666.39;1459868;79;81943;-69
2022/06/26 01:44:26;;;;;;;9.73;5.37;;;;;;;17.12;55.63;98669.19;1471433;79;21001;-69
2022/06/26 01:46:28;;;;;;;7.90;4.80;;;;;;;17.11;55.66;98668.81;1471842;79;21154;-69
2022/06/26 01:48:30;;;;;;;8.68;5.05;;;;;;;17.12;55.70;98666.52;1471559;79;81881;-70
2022/06/26 01:50:31;;;;;;;5.50;5.00;;;;;;;17.13;55.70;98671.72;1473404;79;21817;-69
2022/06/26 01:52:32;;;;;;;14.83;5.00;;;;;;;17.15;55.73;98664.94;1472267;79;21011;-69
2022/06/26 01:54:33;;;;;;;;;;;;;;;17.17;55.73;98668.34;1447692;80;81429;-70
2022/06/26 01:56:34;;;;;;;9.38;5.15;;;;;;;17.17;55.89;98663.02;1446394;80;20281;-70
2022/06/26 01:58:36;;;;;;;6.78;4.83;;;;;;;17.16;55.76;98663.48;1472580;79;21004;-70
2022/06/26 02:00:40;;;;;;;6.97;5.17;;;;;;;17.17;55.75;98667.84;1469830;80;81957;-70
2022/06/26 02:02:41;;;;;;;8.48;4.67;;;;;;;17.16;55.76;98671.47;1470815;79;21027;-70
2022/06/26 02:04:42;;;;;;;8.65;4.97;;;;;;;17.13;55.95;98666.39;1473616;79;21518;-70
2022/06/26 02:06:43;;;;;;;9.05;4.72;;;;;;;17.08;56.02;98673.06;1471553;80;80465;-69
2022/06/26 02:08:44;;;;;;;13.15;5.25;;;;;;;17.03;56.20;98676.11;1472948;79;21007;-70
2022/06/26 02:15:29;;;;;;;8.18;5.03;;;;;;;16.84;56.46;98670.86;1472309;79;21515;-70
2022/06/26 02:17:30;;;;;;;14.85;5.22;;;;;;;16.78;56.63;98672.69;1473460;79;21087;-69
2022/06/26 02:19:31;;;;;;;7.28;4.70;;;;;;;16.76;56.67;98681.27;1470739;79;80750;-71
2022/06/26 02:21:35;;;;;;;5.45;5.05;;;;;;;16.71;56.71;98678.61;1467309;79;20980;-70
2022/06/26 02:23:37;;;;;;;8.83;5.15;;;;;;;16.68;56.81;98689.00;1473109;79;21019;-70
2022/06/26 02:25:38;;;;;;;9.88;5.35;;;;;;;16.61;56.99;98688.63;1471544;79;81453;-70
2022/06/26 02:27:39;;;;;;;7.05;5.50;;;;;;;16.57;57.10;98686.34;1472970;80;21021;-69
2022/06/26 02:29:40;;;;;;;5.97;5.47;;;;;;;16.54;57.16;98690.08;1472368;79;21055;-70
2022/06/26 02:31:41;;;;;;;13.05;5.58;;;;;;;16.50;57.15;98690.81;1470742;79;81244;-70
2022/06/26 02:33:42;;;;;;;;;;;;;;;16.48;57.24;98694.06;1476247;79;21056;-70
2022/06/26 02:35:43;;;;;;;;;;;;;;;16.44;57.57;98693.94;1475120;79;20466;-70
2022/06/26 02:37:44;;;;;;;7.00;5.58;;;;;;;16.42;57.62;98695.02;1474049;79;66850;-71
2022/06/26 02:39:45;;;;;;;;;;;;;;;16.40;57.44;98693.80;1474503;80;20981;-69
2022/06/26 02:41:46;;;;;;;8.10;5.62;;;;;;;16.38;57.75;98699.73;1473397;79;20981;-69
2022/06/26 02:43:47;;;;;;;;;;;;;;;16.33;57.74;98696.08;1473642;79;80821;-69
2022/06/26 02:45:48;;;;;;;14.10;5.83;;;;;;;16.26;57.93;98696.69;1471748;80;20979;-69
2022/06/26 02:47:49;;;;;;;11.40;6.03;;;;;;;16.26;57.93;98696.69;1445661;80;21056;-69
2022/06/26 02:49:50;;;;;;;22.32;6.40;;;;;;;16.19;58.12;98698.13;1454229;80;80788;-69
2022/06/26 02:51:51;;;;;;;;;;;;;;;16.14;58.09;98698.00;1475667;79;21149;-69
2022/06/26 02:53:53;;;;;;;21.85;5.80;;;;;;;16.10;58.40;98704.97;1472061;79;20558;-70
2022/06/26 02:55:54;;;;;;;;;;;;;;;16.05;58.30;98709.31;1473542;79;81609;-70
2022/06/26 02:57:55;;;;;;;6.60;5.42;;;;;;;16.03;58.50;98708.56;1473702;80;20536;-69
2022/06/26 02:59:56;;;;;;;;;;;;;;;16.00;58.55;98708.80;1475742;79;21716;-69
2022/06/26 03:01:57;;;;;;;17.92;6.90;;;;;;;15.99;58.72;98715.07;1469431;79;66996;-69
2022/06/26 03:03:59;;;;;;;18.10;5.87;;;;;;;15.98;58.70;98713.40;1472924;79;22345;-69
2022/06/26 03:06:00;;;;;;;13.65;6.75;;;;;;;15.98;58.66;98722.21;1472027;79;21013;-70
2022/06/26 03:08:02;;;;;;;;;;;;;;;15.97;58.70;98717.02;1474137;79;82099;-70
2022/06/26 03:10:04;;;;;;;7.55;5.55;;;;;;;15.98;58.95;98720.88;1473197;80;20186;-70
2022/06/26 03:12:06;;;;;;;9.30;5.90;;;;;;;15.97;58.94;98723.66;1472327;79;21489;-70
2022/06/26 03:14:10;;;;;;;24.02;6.15;;;;;;;15.97;58.94;98721.00;1448036;80;21542;-70
2022/06/26 03:16:11;;;;;;;11.30;5.17;;;;;;;15.98;58.96;98729.35;1447228;80;21067;-70
2022/06/26 03:18:12;;;;;;;;;;;;;;;16.02;59.06;98737.47;1452101;80;81959;-68
2022/06/26 03:20:18;;;;;;;9.00;5.33;;;;;;;16.03;59.26;98735.15;1453472;80;20131;-69
2022/06/26 03:22:19;;;;;;;15.43;6.05;;;;;;;16.05;59.18;98731.05;1472743;79;21066;-69
2022/06/26 03:24:20;;;;;;;17.32;5.90;;;;;;;16.09;59.16;98734.70;1471236;79;82019;-70
2022/06/26 03:26:22;;;;;;;10.60;5.75;;;;;;;16.16;59.18;98734.61;1446171;80;21619;-69
2022/06/26 03:28:23;;;;;;;21.12;6.37;;;;;;;16.22;59.17;98733.29;1443795;81;21042;-69
2022/06/26 03:30:24;;;;;;;;;;;;;;;16.30;59.19;98738.05;1473702;79;80884;-70
2022/06/26 03:32:26;;;;;;;9.95;6.35;;;;;;;16.37;59.40;98742.42;1472891;78;20219;-70
2022/06/26 03:34:27;;;;;;;8.35;6.15;;;;;;;16.42;59.29;98735.78;1472807;79;21072;-69
2022/06/26 03:36:29;;;;;;;13.90;6.58;;;;;;;16.48;59.28;98739.29;1470456;79;81612;-69
2022/06/26 03:38:30;;;;;;;20.72;6.40;;;;;;;16.56;59.23;98739.17;1471201;79;21072;-70
2022/06/26 03:40:31;;;;;;;13.88;6.25;;;;;;;16.62;59.18;98741.38;1444298;80;20978;-70
2022/06/26 03:42:33;;;;;;;11.08;6.00;;;;;;;16.66;59.16;98745.50;1470904;79;81275;-70
2022/06/26 03:44:34;;;;;;;12.00;6.25;;;;;;;16.69;59.17;98739.94;1445491;80;21055;-69
2022/06/26 03:46:35;;;;;;;6.72;5.65;;;;;;;16.71;59.25;98746.47;1471257;79;21063;-69
2022/06/26 03:48:36;;;;;;;9.80;6.10;;;;;;;16.74;59.19;98748.89;1472220;79;81473;-69
2022/06/26 03:50:37;;;;;;;9.38;5.70;;;;;;;16.75;59.23;98747.43;1472366;79;21019;-69
2022/06/26 03:52:38;;;;;;;13.43;5.53;;;;;;;16.77;59.25;98752.17;1472532;79;21078;-68
2022/06/26 03:54:39;;;;;;;22.05;5.95;;;;;;;16.80;59.16;98755.92;1471750;80;80780;-68
2022/06/26 03:56:40;;;;;;;9.18;5.72;;;;;;;16.82;59.21;98746.47;1470397;79;21630;-69
2022/06/26 03:58:42;;;;;;;6.70;5.50;;;;;;;16.84;59.16;98748.05;1472115;79;20985;-69
2022/06/26 04:00:43;;;;;;;18.40;6.30;;;;;;;16.85;59.15;98743.11;1442638;81;81582;-69
2022/06/26 04:02:44;;;;;;;11.88;5.72;;;;;;;16.89;59.16;98749.55;1442890;81;21032;-69
2022/06/26 04:04:45;;;;;;;8.65;5.47;;;;;;;16.91;59.13;98743.14;1443961;81;21094;-69
2022/06/26 04:06:46;;;;;;;11.22;5.90;;;;;;;16.92;59.17;98754.16;1471050;79;81843;-69
2022/06/26 04:08:47;;;;;;;14.73;6.00;;;;;;;16.95;59.18;98751.74;1472197;79;21028;-70
2022/06/26 04:10:50;;;;;;;15.28;7.90;;;;;;;17.00;59.30;98757.07;1474040;79;21028;-70
2022/06/26 04:12:51;;;;;;;15.35;5.75;;;;;;;17.03;59.30;98755.98;1470576;80;81870;-69
2022/06/26 04:14:52;;;;;;;9.68;6.08;;;;;;;17.09;59.18;98749.33;1444062;80;21293;-70
2022/06/26 04:16:53;;;;;;;10.82;6.22;;;;;;;17.16;59.17;98752.70;1469942;79;21110;-69
2022/06/26 04:18:54;;;;;;;14.43;5.47;;;;;;;17.24;59.23;98760.09;1470415;80;81465;-69
2022/06/26 04:20:55;;;;;;;5.47;4.97;;;;;;;17.30;59.22;98756.09;1471351;79;21074;-69
2022/06/26 04:23:02;;;;;;;11.12;5.58;;;;;;;17.36;59.28;98759.58;1472314;79;21008;-70
2022/06/26 04:25:04;;;;;;;14.00;5.85;;;;;;;17.42;59.36;98764.44;1470279;80;81010;-70
2022/06/26 04:27:07;;;;;;;9.13;5.72;;;;;;;17.49;59.41;98758.14;1446832;80;21084;-70
2022/06/26 04:29:08;;;;;;;10.03;5.78;;;;;;;17.56;59.29;98765.99;1470875;79;21003;-70
2022/06/26 04:31:09;;;;;;;12.47;5.85;;;;;;;17.64;59.22;98761.36;1441460;80;80839;-71
2022/06/26 04:33:11;;;;;;;15.05;6.10;;;;;;;17.73;59.21;98756.62;1478000;79;21510;-70
2022/06/26 04:35:12;;;;;;;6.62;5.87;;;;;;;17.80;59.15;98755.64;1488389;78;21639;-70
2022/06/26 04:37:13;;;;;;;13.28;6.20;;;;;;;17.88;59.09;98763.36;1487402;78;80676;-69
2022/06/26 04:39:15;;;;;;;12.23;5.90;;;;;;;17.96;58.99;98767.27;1488559;78;21078;-69
2022/06/26 04:41:31;;;;;;;9.33;6.25;;;;;;;18.02;59.00;98763.59;1480087;80;21015;-70
2022/06/26 04:43:32;;;;;;;6.97;5.47;;;;;;;18.07;59.00;98775.23;1458935;80;81430;-69
2022/06/26 04:45:33;;;;;;;8.03;5.72;;;;;;;18.12;58.97;98772.17;1478765;78;21927;-69
2022/06/26 04:47:35;;;;;;;20.92;6.60;;;;;;;18.18;58.88;98767.67;1479425;78;21612;-70
2022/06/26 04:49:35;;;;;;;6.12;5.53;;;;;;;18.28;58.82;98767.75;1477866;78;81531;-68
2022/06/26 04:51:37;;;;;;;11.12;5.60;;;;;;;18.33;58.81;98765.05;1480187;79;21558;-69
2022/06/26 04:53:38;;;;;;;14.75;6.55;;;;;;;18.38;58.74;98767.33;1438803;81;21035;-69
2022/06/26 04:55:40;;;;;;;13.45;6.03;;;;;;;18.44;58.78;98774.83;1458262;80;82344;-69
2022/06/26 04:57:42;;;;;;;8.55;6.00;;;;;;;18.49;58.62;98769.93;1480683;79;20954;-70
2022/06/26 04:59:43;;;;;;;6.75;5.85;;;;;;;18.58;58.53;98766.13;1477520;78;21055;-69
2022/06/26 05:01:44;;;;;;;12.18;5.75;;;;;;;18.65;58.47;98764.16;1477456;79;81401;-70
2022/06/26 05:03:45;;;;;;;6.33;5.72;;;;;;;18.74;58.33;98759.84;1459701;80;20991;-70
2022/06/26 05:05:48;;;;;;;10.85;6.30;;;;;;;18.83;58.18;98763.06;1459747;80;21703;-70
2022/06/26 05:07:49;;;;;;;10.03;6.28;;;;;;;18.93;58.03;98763.62;1478353;78;80702;-70
2022/06/26 05:09:50;;;;;;;8.23;6.40;;;;;;;19.02;57.91;98762.83;1487668;78;21009;-70
2022/06/26 05:11:51;;;;;;;12.28;6.15;;;;;;;19.11;57.81;98758.53;1480478;78;21266;-69
2022/06/26 05:13:53;;;;;;;9.70;5.97;;;;;;;19.17;57.70;98764.66;1477004;78;81480;-70
2022/06/26 05:15:57;;;;;;;9.33;6.17;;;;;;;19.25;57.50;98762.66;1460293;80;21074;-69
2022/06/26 05:17:58;;;;;;;8.75;5.78;;;;;;;19.32;57.42;98766.48;1460489;80;21015;-69
2022/06/26 05:19:59;;;;;;;9.18;5.85;;;;;;;19.39;57.32;98775.65;1477955;78;81467;-69
2022/06/26 05:22:02;;;;;;;5.25;4.85;;;;;;;19.47;57.33;98777.16;1479322;78;21465;-70
2022/06/26 05:24:04;;;;;;;14.60;6.15;;;;;;;19.52;57.23;98781.61;1479514;78;21496;-70
2022/06/26 05:26:05;;;;;;;11.10;6.47;;;;;;;19.57;57.17;98780.69;1480210;78;80535;-69
2022/06/26 05:28:06;;;;;;;13.45;6.33;;;;;;;19.64;57.05;98779.66;1460039;80;20984;-69
2022/06/26 05:30:08;;;;;;;6.50;5.75;;;;;;;19.69;56.99;98780.60;1457287;80;21202;-70
2022/06/26 05:32:09;;;;;;;9.95;5.85;;;;;;;19.74;56.98;98779.68;1479897;78;80353;-70
2022/06/26 05:34:11;;;;;;;11.22;5.60;;;;;;;19.81;56.92;98782.18;1480578;78;21037;-70
2022/06/26 05:36:12;;;;;;;16.02;6.17;;;;;;;19.86;56.92;98783.96;1457589;80;81032;-70
2022/06/26 05:38:13;;;;;;;16.32;6.08;;;;;;;19.94;56.87;98781.08;1479356;78;21068;-70
2022/06/26 05:40:14;;;;;;;8.05;5.85;;;;;;;20.00;56.83;98780.54;1480343;80;21027;-69
2022/06/26 05:42:15;;;;;;;8.50;5.58;;;;;;;20.05;56.76;98781.81;1478602;78;81607;-71
2022/06/26 05:44:16;;;;;;;12.20;5.97;;;;;;;20.13;56.79;98786.48;1479348;78;21016;-70
2022/06/26 05:46:17;;;;;;;11.05;5.72;;;;;;;20.20;56.73;98780.05;1480061;79;22241;-70
2022/06/26 05:48:19;;;;;;;6.60;5.90;;;;;;;20.27;56.74;98785.22;1458888;80;82213;-70
2022/06/26 05:50:21;;;;;;;7.10;5.70;;;;;;;20.33;56.61;98783.80;1479751;78;21147;-69
2022/06/26 05:52:22;;;;;;;13.10;7.37;;;;;;;20.40;56.73;98794.29;1458833;80;20991;-71
2022/06/26 05:54:23;;;;;;;9.73;6.05;;;;;;;20.49;56.59;98796.59;1477664;78;82077;-70
2022/06/26 05:56:24;;;;;;;16.85;6.50;;;;;;;20.55;56.69;98802.23;1459418;80;21000;-71
2022/06/26 05:58:25;;;;;;;7.92;5.67;;;;;;;20.64;56.64;98806.39;1479181;79;21076;-70
2022/06/26 06:00:26;;;;;;;6.78;6.08;;;;;;;20.74;56.70;98807.23;1478819;78;89276;-70
2022/06/26 06:02:28;;;;;;;8.15;6.10;;;;;;;20.85;56.60;98800.88;1479905;79;21004;-69
2022/06/26 06:04:29;;;;;;;8.53;5.53;;;;;;;20.92;56.45;98808.22;1479423;79;21598;-70
2022/06/26 06:06:30;;;;;;;17.02;6.33;;;;;;;20.91;56.31;98809.70;1478572;78;80819;-70
2022/06/26 06:08:31;;;;;;;7.90;5.35;;;;;;;20.95;56.35;98812.44;1478352;78;20998;-70
2022/06/26 06:10:33;;;;;;;17.10;5.42;;;;;;;21.02;56.34;98811.37;1459939;80;20961;-70
2022/06/26 06:12:35;;;;;;;7.25;6.05;;;;;;;21.08;56.33;98810.27;1478084;78;81707;-70
2022/06/26 06:14:36;;;;;;;12.43;5.40;;;;;;;21.17;56.26;98811.25;1479825;79;21039;-69
2022/06/26 06:16:37;;;;;;;10.82;5.65;;;;;;;21.24;56.21;98817.71;1478539;79;20956;-69
2022/06/26 06:18:38;;;;;;;13.32;5.22;;;;;;;21.31;56.17;98814.43;1479347;78;80701;-69
2022/06/26 06:20:39;;;;;;;15.58;5.80;;;;;;;21.37;55.98;98821.91;1458748;80;21035;-69
2022/06/26 06:24:57;;;;;;;6.25;5.65;;;;;;;21.62;55.90;98819.58;1473926;77;22714;-70
2022/06/26 06:26:58;;;;;;;7.53;5.05;;;;;;;21.67;55.84;98831.55;1425979;82;20990;-68
2022/06/26 06:28:59;;;;;;;12.37;5.42;;;;;;;21.74;55.67;98827.27;1424804;82;21085;-70
2022/06/26 06:31:00;;;;;;;13.13;5.72;;;;;;;21.84;55.79;98834.43;1436715;80;81674;-69
2022/06/26 06:33:01;;;;;;;10.90;6.53;;;;;;;21.89;55.50;98830.30;1455308;80;21600;-70
2022/06/26 06:35:05;;;;;;;13.60;5.60;;;;;;;21.93;55.34;98830.34;1456065;80;21034;-70
2022/06/26 06:37:06;;;;;;;6.72;5.80;;;;;;;21.96;55.32;98829.69;1456885;78;82046;-70
2022/06/26 06:39:07;;;;;;;11.30;5.55;;;;;;;22.02;55.28;98823.73;1455499;80;21526;-70
2022/06/26 06:41:08;;;;;;;11.05;5.37;;;;;;;22.09;55.24;98828.83;1457011;80;21021;-69
2022/06/26 06:43:10;;;;;;;17.67;5.53;;;;;;;22.20;55.17;98831.30;1448936;79;81630;-70
2022/06/26 06:45:12;;;;;;;14.53;5.17;;;;;;;22.24;54.97;98834.02;1443118;81;21031;-70
2022/06/26 06:47:13;;;;;;;9.53;4.65;;;;;;;22.30;54.68;98833.08;1446573;80;21103;-70
2022/06/26 06:49:14;;;;;;;9.40;4.70;;;;;;;22.35;54.60;98836.19;1473848;79;80674;-69
2022/06/26 06:51:15;;;;;;;6.30;4.97;;;;;;;22.45;54.65;98830.22;1491343;79;20993;-70
2022/06/26 06:53:16;;;;;;;9.58;4.95;;;;;;;22.55;54.56;98824.26;1487126;79;21052;-69
2022/06/26 06:55:17;;;;;;;7.17;5.37;;;;;;;22.66;54.38;98826.38;1491394;79;81891;-69
2022/06/26 06:57:18;;;;;;;7.22;4.55;;;;;;;22.72;54.36;98825.73;1492689;79;21092;-70
2022/06/26 06:59:19;;;;;;;14.70;4.92;;;;;;;22.80;54.29;98828.49;1491785;79;21653;-70
2022/06/26 07:01:20;;;;;;;8.65;5.22;;;;;;;22.86;53.91;98828.36;1489826;79;81192;-70
2022/06/26 07:03:21;;;;;;;6.47;4.50;;;;;;;22.91;53.92;98830.92;1490332;79;21087;-69
2022/06/26 07:05:23;;;;;;;13.53;4.67;;;;;;;22.95;53.78;98832.30;1490733;79;21744;-70
2022/06/26 07:07:24;;;;;;;14.00;5.12;;;;;;;23.04;53.72;98832.36;1488963;79;82216;-71
2022/06/26 07:09:25;;;;;;;7.55;5.15;;;;;;;23.16;53.71;98833.81;1488188;79;21004;-70
2022/06/26 07:11:26;;;;;;;10.63;4.67;;;;;;;23.26;53.34;98831.02;1488070;79;21052;-70
2022/06/26 07:13:27;;;;;;;8.35;4.78;;;;;;;23.28;53.22;98828.52;1463673;79;80745;-70
2022/06/26 07:15:28;;;;;;;15.58;4.30;;;;;;;23.36;53.26;98828.21;1449226;81;21493;-69
2022/06/26 07:17:29;;;;;;;7.35;4.97;;;;;;;23.47;53.18;98836.03;1451018;81;21028;-69
2022/06/26 07:19:30;;;;;;;12.95;5.00;;;;;;;23.49;52.60;98828.63;1457063;79;80798;-70
2022/06/26 07:21:31;;;;;;;15.90;4.60;;;;;;;23.55;52.78;98830.69;1458284;80;21005;-70
2022/06/26 07:23:33;;;;;;;20.08;5.60;;;;;;;23.66;52.72;98827.36;1428857;81;21026;-69
2022/06/26 07:25:34;;;;;;;12.75;5.08;;;;;;;23.78;52.74;98828.75;1390673;83;82097;-70
2022/06/26 07:27:35;;;;;;;21.50;5.37;;;;;;;23.85;52.55;98829.78;1359873;85;21038;-70
2022/06/26 07:29:38;;;;;;;7.72;4.78;;;;;;;23.95;52.61;98834.58;1385716;84;21064;-71
2022/06/26 07:31:39;;;;;;;8.73;4.17;;;;;;;24.04;52.59;98825.18;1408433;82;81584;-70
2022/06/26 07:36:00;;;;;;;7.92;4.85;;;;;;;24.28;52.37;98827.89;1417824;83;21641;-69
2022/06/26 07:38:01;;;;;;;14.75;4.00;;;;;;;24.34;52.23;98834.98;1392427;83;81358;-70
2022/06/26 07:40:03;;;;;;;7.15;4.58;;;;;;;24.44;51.97;98824.91;1388070;85;21032;-69
2022/06/26 07:42:05;;;;;;;7.80;4.17;;;;;;;24.54;51.79;98830.14;1418322;83;21522;-69
2022/06/26 07:44:06;;;;;;;8.15;4.55;;;;;;;24.63;51.70;98837.23;1396319;84;81145;-69
2022/06/26 07:46:07;;;;;;;7.47;4.28;;;;;;;24.70;51.60;98833.36;1397343;83;21063;-70
2022/06/26 07:48:08;;;;;;;15.45;4.08;;;;;;;24.79;51.74;98828.31;1417650;82;21480;-70
2022/06/26 07:50:09;;;;;;;6.72;3.92;;;;;;;24.88;51.04;98833.19;1416006;83;80723;-69
2022/06/26 07:52:11;;;;;;;9.83;4.12;;;;;;;24.93;51.06;98834.87;1439430;82;21067;-70
2022/06/26 07:54:12;;;;;;;12.98;4.20;;;;;;;25.02;50.57;98830.30;1438543;82;21070;-71
2022/06/26 07:56:13;;;;;;;11.50;4.42;;;;;;;25.08;50.50;98829.12;1437349;82;20988;-71
2022/06/26 07:58:14;;;;;;;11.00;4.80;;;;;;;25.18;50.66;98830.28;1419904;83;20998;-70
2022/06/26 08:00:15;;;;;;;5.65;4.17;;;;;;;25.24;50.23;98828.26;1437743;82;80772;-70
2022/06/26 08:02:17;;;;;;;12.37;4.20;;;;;;;25.24;50.28;98823.34;1437794;82;20991;-69
2022/06/26 08:04:18;;;;;;;5.45;4.05;;;;;;;25.30;50.42;98823.50;1441443;82;20988;-69
2022/06/26 08:06:19;;;;;;;6.53;4.17;;;;;;;25.42;50.41;98822.67;1436953;81;80748;-70
2022/06/26 08:08:20;;;;;;;8.35;3.83;;;;;;;25.51;50.07;98824.83;1438289;82;21007;-70
2022/06/26 08:10:22;;;;;;;7.15;3.92;;;;;;;25.61;49.58;98820.05;1440904;82;20996;-70
2022/06/26 08:12:24;;;;;;;7.22;3.52;;;;;;;25.76;49.75;98826.91;1436942;82;80683;-71
2022/06/26 08:14:25;;;;;;;9.33;3.85;;;;;;;25.78;49.18;98827.59;1435857;82;21082;-70
2022/06/26 08:16:26;;;;;;;6.20;3.67;;;;;;;25.82;48.33;98826.23;1441881;82;20949;-70
2022/06/26 08:18:27;;;;;;;4.25;3.85;;;;;;;25.90;48.52;98826.68;1437663;81;80868;-69
2022/06/26 08:20:29;;;;;;;11.05;3.85;;;;;;;26.05;48.66;98831.38;1440378;82;21050;-70
2022/06/26 08:22:30;;;;;;;7.33;3.92;;;;;;;26.24;48.51;98833.63;1442339;82;21008;-69
2022/06/26 08:24:33;;;;;;;4.97;3.45;;;;;;;26.40;48.10;98823.20;1447163;81;80764;-70
2022/06/26 08:26:34;;;;;;;5.53;3.80;;;;;;;26.50;47.63;98830.57;1402226;84;21579;-70
2022/06/26 08:28:37;;;;;;;5.22;3.58;;;;;;;26.57;47.01;98833.40;1406166;83;20995;-70
2022/06/26 08:30:38;;;;;;;4.50;3.60;;;;;;;26.59;47.30;98834.04;1427162;83;81732;-70
2022/06/26 08:32:39;;;;;;;12.82;3.80;;;;;;;26.65;46.81;98840.09;1430988;81;21046;-69
2022/06/26 08:34:41;;;;;;;7.42;3.77;;;;;;;26.73;47.33;98835.14;1417013;83;20993;-71
2022/06/26 08:36:43;;;;;;;4.70;3.67;;;;;;;26.85;46.61;98832.86;1429188;81;81502;-69
2022/06/26 08:38:44;;;;;;;15.30;3.77;;;;;;;26.96;46.96;98833.77;1431502;83;21047;-69
2022/06/26 08:40:46;;;;;;;8.20;3.55;;;;;;;27.11;46.94;98831.59;1429233;82;21475;-70
2022/06/26 08:42:49;;;;;;;6.08;3.10;;;;;;;27.32;46.93;98830.36;1431164;82;80829;-70
2022/06/26 08:44:51;;;;;;;3.52;3.22;;;;;;;27.49;46.42;98828.86;1442138;82;21043;-70
2022/06/26 08:46:53;;;;;;;13.18;4.12;;;;;;;27.63;46.09;98825.81;1445368;82;21104;-69
2022/06/26 08:48:57;;;;;;;7.80;3.72;;;;;;;27.76;45.84;98837.32;1442902;82;80816;-70
2022/06/26 08:50:59;;;;;;;5.95;2.85;;;;;;;27.85;45.30;98836.20;1445456;82;21091;-70
2022/06/26 08:53:01;;;;;;;4.20;2.72;;;;;;;27.93;45.19;98829.32;1447059;82;22095;-69
2022/06/26 08:55:04;;;;;;;4.80;3.20;;;;;;;28.03;44.75;98829.05;1443840;82;81568;-69
2022/06/26 08:57:05;;;;;;;6.65;3.83;;;;;;;28.08;44.84;98824.41;1444218;82;21091;-70
2022/06/26 08:59:07;;;;;;;11.22;2.90;;;;;;;28.17;44.55;98828.69;1441821;82;21483;-70
2022/06/26 09:01:09;;;;;;;23.20;3.17;;;;;;;28.27;44.44;98822.95;1440317;82;80711;-69
2022/06/26 09:03:10;;;;;;;13.65;2.85;;;;;;;28.34;44.04;98823.84;1442110;80;20973;-72
2022/06/26 09:05:11;;;;;;;2.83;2.33;;;;;;;28.41;42.97;98826.63;1442397;82;21271;-70
2022/06/26 09:07:12;;;;;;;8.05;2.87;;;;;;;28.43;43.07;98822.70;1443311;82;81460;-71
2022/06/26 09:09:25;;;;;;;11.18;2.85;;;;;;;28.50;42.37;98825.48;1441930;82;21127;-71
2022/06/26 09:11:26;;;;;;;4.95;2.37;;;;;;;28.42;42.65;98821.02;1443646;82;21615;-70
2022/06/26 09:13:40;;;;;;;7.35;2.80;;;;;;;28.46;41.54;98821.48;1445448;82;81358;-70
2022/06/26 09:15:42;;;;;;;5.90;2.92;;;;;;;28.30;42.27;98823.41;1447073;82;20992;-69
2022/06/26 09:17:56;;;;;;;4.90;2.60;;;;;;;28.33;37.48;98820.31;1443630;82;80786;-72
2022/06/26 09:19:57;;;;;;;3.22;2.47;;;;;;;28.28;39.47;98814.63;1445936;82;21024;-70
2022/06/26 09:22:07;;;;;;;4.80;2.42;;;;;;;28.32;41.13;98823.22;1446084;82;21855;-69
2022/06/26 09:24:14;;;;;;;4.37;2.90;;;;;;;28.38;40.45;98823.79;1437924;82;80536;-71
2022/06/26 09:26:16;;;;;;;5.45;2.95;;;;;;;28.48;40.59;98824.82;1432063;82;21182;-71
2022/06/26 09:28:20;;;;;;;4.45;2.47;;;;;;;28.47;40.76;98821.28;1450184;82;21364;-71
2022/06/26 09:30:21;;;;;;;5.53;2.08;;;;;;;28.58;40.60;98819.93;1448016;82;80501;-70
2022/06/26 09:32:23;;;;;;;5.40;2.72;;;;;;;28.67;40.11;98820.13;1445312;82;21032;-71
2022/06/26 09:34:26;;;;;;;7.67;2.50;;;;;;;28.76;39.42;98828.13;1449145;82;21039;-71
2022/06/26 09:36:29;;;;;;;2.52;2.30;;;;;;;28.82;39.90;98823.30;1447575;82;81520;-69
2022/06/26 09:38:35;;;;;;;6.53;2.55;;;;;;;28.89;38.90;98832.32;1445345;82;21079;-71
2022/06/26 09:40:36;;;;;;;13.40;2.92;;;;;;;28.78;39.38;98826.91;1448866;82;21019;-71
2022/06/26 09:42:37;;;;;;;5.55;2.62;;;;;;;28.88;39.49;98821.14;1446197;82;80810;-71
2022/06/26 09:44:51;;;;;;;11.55;3.00;;;;;;;29.05;39.56;98830.67;1449478;82;21117;-70